Data for 06/23/2018

Time Sea-Level Adjusted Pressure Absolute Pressure Temperature Relative Humidity Dew Point   
(mb) (inHg) (mb) (inHg) (C) (F) (%) (C) (F)
00:05 1017 30.03 847 25.01 15.5 60 53 6 42.7
00:10 1017 30.03 847 25.01 15.6 60 52 5.8 42.4
00:15 1018 30.06 847 25.01 15.4 59.6 52 5.8 42.4
00:20 1018 30.06 847 25.01 15.2 59.3 54 6.1 42.9
00:25 1018 30.06 847 25.01 14.9 58.8 57 6.7 44
00:30 1018 30.06 847 25.01 14.6 58.3 62 7.4 45.4
00:35 1018 30.06 848 25.04 14.2 57.5 65 7.8 46.1
00:40 1018 30.06 848 25.04 13.8 56.8 68 8 46.3
00:45 1018 30.06 848 25.04 13.6 56.5 68 8 46.3
00:50 1018 30.06 848 25.04 13.6 56.4 70 8.3 46.9
00:55 1018 30.06 848 25.04 13.5 56.3 73 8.7 47.7
01:00 1018 30.06 848 25.04 13.3 55.9 71 8.2 46.7
01:05 1018 30.06 848 25.04 12.9 55.2 75 8.5 47.4
01:10 1018 30.06 847 25.01 12.4 54.3 74 8 46.4
01:15 1018 30.06 847 25.01 12 53.7 76 8 46.4
01:20 1018 30.06 847 25.01 11.9 53.4 77 8 46.4
01:25 1018 30.06 847 25.01 11.8 53.2 78 8.2 46.7
01:30 1018 30.06 847 25.01 11.7 53 80 8.4 47.1
01:35 1018 30.06 847 25.01 11.6 53 80 8.3 47
01:40 1018 30.06 847 25.01 11.8 53.2 81 8.6 47.5
01:45 1018 30.06 847 25.01 11.8 53.2 79 8.3 46.9
01:50 1018 30.06 847 25.01 11.7 53 78 8 46.4
01:55 1018 30.06 847 25.01 11.6 52.9 79 8.1 46.5
02:00 1018 30.06 847 25.01 11.6 52.8 78 7.9 46.2
02:05 1018 30.06 847 25.01 11.6 53 78 8 46.4
02:10 1017 30.03 847 25.01 11.7 53.1 79 8.3 46.9
02:15 1017 30.03 847 25.01 11.7 53 81 8.5 47.3
02:20 1017 30.03 847 25.01 11.6 52.9 82 8.6 47.6
02:25 1017 30.03 847 25.01 11.6 52.8 82 8.6 47.5
02:30 1018 30.06 847 25.01 11.6 52.8 83 8.8 47.8
02:35 1018 30.06 847 25.01 11.5 52.6 83 8.7 47.7
02:40 1017 30.03 847 25.01 11.3 52.3 84 8.7 47.7
02:45 1018 30.06 847 25.01 11.3 52.3 83 8.5 47.3
02:50 1018 30.06 847 25.01 11.4 52.6 82 8.5 47.2
02:55 1018 30.06 847 25.01 11.5 52.6 82 8.6 47.5
03:00 1018 30.06 847 25.01 11.3 52.3 83 8.6 47.4
03:05 1017 30.03 847 25.01 11.2 52.1 84 8.6 47.5
03:10 1017 30.03 847 25.01 11.1 51.9 84 8.5 47.3
03:15 1017 30.03 846 24.98 11.1 52 85 8.7 47.6
03:20 1017 30.03 846 24.98 11 51.8 85 8.7 47.6
03:25 1017 30.03 846 24.98 10.9 51.7 86 8.7 47.6
03:30 1017 30.03 846 24.98 10.8 51.5 87 8.7 47.6
03:35 1017 30.03 846 24.98 10.7 51.3 87 8.6 47.5
03:40 1017 30.03 846 24.98 10.7 51.3 87 8.6 47.4
03:45 1017 30.03 846 24.98 10.7 51.3 86 8.5 47.2
03:50 1017 30.03 846 24.98 10.8 51.4 85 8.3 46.9
03:55 1017 30.03 846 24.98 10.8 51.4 85 8.4 47.1
04:00 1016 30 846 24.98 10.8 51.4 84 8.3 46.9
04:05 1016 30 845 24.95 10.8 51.5 84 8.3 46.9
04:10 1016 30 846 24.98 10.8 51.5 84 8.2 46.8
04:15 1016 30 846 24.98 10.8 51.5 84 8.2 46.7
04:20 1016 30 846 24.98 10.9 51.5 82 8 46.3
04:25 1016 30 846 24.98 11 51.7 83 8.1 46.7
04:30 1016 30 846 24.98 11 51.7 82 8.1 46.6
04:35 1016 30 846 24.98 11 51.8 82 8.1 46.5
04:40 1016 30 846 24.98 11 51.7 83 8.2 46.8
04:45 1016 30 846 24.98 10.9 51.6 83 8.2 46.8
04:50 1017 30.03 846 24.98 11 51.7 83 8.2 46.8
04:55 1017 30.03 846 24.98 10.9 51.7 84 8.3 47
05:00 1017 30.03 846 24.98 10.9 51.6 85 8.4 47.1
05:05 1016 30 846 24.98 10.8 51.4 84 8.2 46.8
05:10 1016 30 846 24.98 10.8 51.4 84 8.2 46.8
05:15 1016 30 846 24.98 10.8 51.4 84 8.2 46.7
05:20 1016 30 846 24.98 10.8 51.4 84 8.2 46.7
05:25 1017 30.03 846 24.98 10.8 51.4 84 8.2 46.8
05:30 1016 30 846 24.98 10.8 51.4 83 8 46.3
05:35 1017 30.03 846 24.98 10.8 51.5 82 7.9 46.3
05:40 1016 30 846 24.98 10.9 51.5 82 7.9 46.1
05:45 1017 30.03 846 24.98 10.9 51.6 81 7.8 46.1
05:50 1017 30.03 846 24.98 10.8 51.5 82 8 46.3
05:55 1017 30.03 846 24.98 10.7 51.2 83 7.9 46.3
06:00 1017 30.03 846 24.98 10.5 50.9 84 7.9 46.2
06:05 1017 30.03 846 24.98 10.5 50.8 84 8 46.3
06:10 1017 30.03 846 24.98 10.5 50.8 84 7.9 46.2
06:15 1017 30.03 846 24.98 10.5 50.9 84 7.9 46.2
06:20 1017 30.03 846 24.98 10.4 50.7 84 7.9 46.2
06:25 1017 30.03 846 24.98 10.3 50.6 85 7.8 46.1
06:30 1017 30.03 846 24.98 10.4 50.6 85 7.9 46.2
06:35 1017 30.03 846 24.98 10.5 50.9 84 8 46.4
06:40 1017 30.03 846 24.98 10.7 51.3 83 8 46.5
06:45 1017 30.03 846 24.98 10.9 51.6 82 8 46.4
06:50 1017 30.03 846 24.98 11.1 52 81 8 46.5
06:55 1017 30.03 846 24.98 11 51.8 83 8.3 47
07:00 1017 30.03 846 24.98 10.8 51.4 85 8.3 47
07:05 1017 30.03 846 24.98 10.8 51.4 85 8.4 47
07:10 1017 30.03 846 24.98 10.9 51.7 84 8.4 47.1
07:15 1017 30.03 846 24.98 11 51.8 83 8.2 46.8
07:20 1017 30.03 846 24.98 11.2 52.2 83 8.5 47.3
07:25 1017 30.03 846 24.98 11.5 52.7 82 8.6 47.4
07:30 1017 30.03 846 24.98 11.7 53 81 8.6 47.4
07:35 1017 30.03 846 24.98 11.6 52.9 82 8.7 47.6
07:40 1017 30.03 846 24.98 11.5 52.7 82 8.6 47.5
07:45 1017 30.03 846 24.98 11.7 53 82 8.8 47.8
07:50 1017 30.03 846 24.98 11.6 53 82 8.8 47.8
07:55 1017 30.03 846 24.98 11.6 52.9 83 8.8 47.9
08:00 1017 30.03 846 24.98 12.1 53.8 78 8.4 47.1
08:05 1017 30.03 846 24.98 12.5 54.5 77 8.6 47.5
08:10 1017 30.03 846 24.98 13.4 56.1 72 8.5 47.2
08:15 1017 30.03 846 24.98 13.9 57.1 70 8.6 47.4
08:20 1017 30.03 846 24.98 14.1 57.3 69 8.6 47.4
08:25 1017 30.03 846 24.98 14.4 58 67 8.4 47.1
08:30 1017 30.03 846 24.98 14.8 58.7 67 8.7 47.7
08:35 1017 30.03 846 24.98 15.4 59.7 58 7.3 45.1
08:40 1017 30.03 846 24.98 15.4 59.7 57 7.1 44.7
08:45 1017 30.03 846 24.98 16 60.8 56 7.2 45
08:50 1017 30.03 846 24.98 16.6 61.8 58 8.3 46.9
08:55 1017 30.03 846 24.98 16.3 61.4 59 8.3 46.9
09:00 1017 30.03 846 24.98 15.7 60.2 58 7.5 45.6
09:05 1017 30.03 846 24.98 15.5 59.8 59 7.5 45.4
09:10 1017 30.03 846 24.98 15.6 60 57 7.2 45
09:15 1017 30.03 846 24.98 15.6 60 58 7.4 45.4
09:20 1017 30.03 846 24.98 16 60.8 54 6.8 44.2
09:25 1017 30.03 846 24.98 16.1 61 51 6.1 43
09:30 1017 30.03 846 24.98 16.2 61.2 51 6.1 43
09:35 1017 30.03 846 24.98 16.2 61.1 50 5.9 42.7
09:40 1017 30.03 846 24.98 16.2 61.2 47 5.1 41.2
09:45 1017 30.03 846 24.98 16.5 61.7 44 4.4 40
09:50 1017 30.03 846 24.98 17.3 63.1 42 4.4 39.8
09:55 1017 30.03 846 24.98 17.7 63.8 43 4.9 40.8
10:00 1017 30.03 846 24.98 16.6 61.9 43 4 39.2
10:05 1017 30.03 846 24.98 16.7 62 43 4.3 39.7
10:10 1017 30.03 846 24.98 17.4 63.2 43 4.8 40.6
10:15 1017 30.03 846 24.98 18.6 65.6 39 4.4 40
10:20 1017 30.03 846 24.98 19.1 66.3 41 5.5 41.9
10:25 1017 30.03 846 24.98 19.1 66.3 37 4 39.2
10:30 1017 30.03 846 24.98 18.7 65.6 35 2.9 37.3
10:35 1017 30.03 846 24.98 18.6 65.4 35 2.9 37.3
10:40 1017 30.03 846 24.98 18.6 65.4 33 2.2 36
10:45 1016 30 846 24.98 18.7 65.7 33 2.1 35.8
10:50 1016 30 846 24.98 18.8 65.8 34 2.8 37
10:55 1016 30 846 24.98 19.1 66.4 33 2.7 36.8
11:00 1016 30 846 24.98 19.5 67.2 32 2.7 36.8
11:05 1016 30 846 24.98 19.1 66.4 33 2.7 36.9
11:10 1016 30 846 24.98 19.2 66.5 35 3.3 38
11:15 1016 30 845 24.95 20 68.1 36 4.6 40.3
11:20 1016 30 845 24.95 19.6 67.3 34 3.5 38.3
11:25 1016 30 845 24.95 19.9 67.9 34 4 39.2
11:30 1016 30 845 24.95 19.6 67.2 36 4.1 39.4
11:35 1016 30 845 24.95 19.5 67.1 34 3.5 38.2
11:40 1016 30 845 24.95 19.4 66.9 36 4 39.3
11:45 1016 30 845 24.95 19.9 67.8 35 4 39.2
11:50 1016 30 845 24.95 19.6 67.2 35 4 39.2
11:55 1016 30 846 24.98 19 66.2 37 4.2 39.6
12:00 1016 30 846 24.98 17.9 64.3 40 4.2 39.6
12:05 1016 30 846 24.98 16 60.8 42 3.2 37.8
12:10 1016 30 845 24.95 15.7 60.2 45 3.8 38.8
12:15 1016 30 845 24.95 16.4 61.4 41 3.2 37.7
12:20 1016 30 845 24.95 17 62.5 43 4.3 39.7
12:25 1016 30 845 24.95 17.1 62.7 40 3.5 38.3
12:30 1016 30 845 24.95 16.9 62.5 42 3.9 39.1
12:35 1016 30 845 24.95 17.3 63.1 39 3.4 38.1
12:40 1016 30 845 24.95 17.9 64.3 38 3.4 38.2
12:45 1016 30 845 24.95 18.1 64.6 37 3.5 38.3
12:50 1016 30 845 24.95 18.4 65.2 37 3.5 38.3
12:55 1016 30 845 24.95 18.6 65.5 38 4 39.3
13:00 1016 30 846 24.98 18.2 64.8 47 6.7 44.1
13:05 1017 30.03 846 24.98 16.4 61.5 49 5.8 42.5
13:10 1017 30.03 846 24.98 15.6 60 54 6.5 43.7
13:15 1018 30.06 847 25.01 14.7 58.5 68 8.9 48.1
13:20 1018 30.06 847 25.01 13.3 55.9 73 8.5 47.3
13:25 1018 30.06 848 25.04 12.3 54.1 80 8.8 47.9
13:30 1018 30.06 848 25.04 11.5 52.7 82 8.5 47.3
13:35 1018 30.06 848 25.04 11.3 52.3 82 8.3 46.9
13:40 1018 30.06 848 25.04 11.3 52.3 80 8 46.5
13:45 1018 30.06 848 25.04 11.4 52.5 75 7.2 45
13:50 1018 30.06 848 25.04 11.5 52.7 75 7.2 45
13:55 1018 30.06 848 25.04 11.6 52.8 76 7.6 45.7
14:00 1018 30.06 848 25.04 11.6 52.9 74 7.1 44.8
14:05 1018 30.06 848 25.04 11.5 52.7 77 7.7 45.9
14:10 1019 30.09 848 25.04 11.8 53.3 76 7.8 46
14:15 1019 30.09 848 25.04 12.1 53.8 78 8.5 47.2
14:20 1019 30.09 848 25.04 12.1 53.9 75 7.8 46
14:25 1019 30.09 848 25.04 11.9 53.4 76 7.7 45.9
14:30 1019 30.09 848 25.04 11.8 53.2 79 8.3 47
14:35 1019 30.09 848 25.04 11.8 53.2 77 7.9 46.2
14:40 1019 30.09 848 25.04 11.8 53.3 78 8.2 46.7
14:45 1019 30.09 848 25.04 12 53.5 78 8.2 46.7
14:50 1019 30.09 848 25.04 12 53.5 76 7.9 46.2
14:55 1019 30.09 848 25.04 11.9 53.4 77 8 46.4
15:00 1019 30.09 848 25.04 11.8 53.3 76 7.7 45.9
15:05 1019 30.09 848 25.04 12.2 53.9 77 8.2 46.8
15:10 1019 30.09 848 25.04 12.1 53.7 77 8.2 46.7
15:15 1018 30.06 848 25.04 12.1 53.8 74 7.6 45.7
15:20 1018 30.06 848 25.04 12.1 53.7 75 7.8 46
15:25 1018 30.06 848 25.04 12.5 54.5 72 7.6 45.7
15:30 1018 30.06 848 25.04 13 55.3 71 7.9 46.2
15:35 1018 30.06 848 25.04 13.1 55.5 72 8.1 46.6
15:40 1018 30.06 848 25.04 14.2 57.5 65 7.8 46.1
15:45 1018 30.06 847 25.01 13.9 57 64 7.3 45.2
15:50 1018 30.06 847 25.01 14.2 57.6 61 6.8 44.3
15:55 1018 30.06 847 25.01 14 57.1 63 7.1 44.8
16:00 1018 30.06 847 25.01 14.6 58.3 62 7.5 45.4
16:05 1018 30.06 848 25.04 14.4 57.8 63 7.4 45.3
16:10 1019 30.09 848 25.04 12.4 54.4 70 7.2 44.9
16:15 1018 30.06 848 25.04 10.5 50.9 80 7.2 45
16:20 1018 30.06 848 25.04 9.7 49.4 82 6.8 44.2
16:25 1018 30.06 848 25.04 9.6 49.3 83 6.9 44.4
16:30 1018 30.06 848 25.04 9.6 49.3 85 7.2 44.9
16:35 1018 30.06 848 25.04 9.6 49.3 85 7.3 45.1
16:40 1019 30.09 848 25.04 10 49.9 85 7.6 45.7
16:45 1019 30.09 848 25.04 10.4 50.6 85 8 46.3
16:50 1018 30.06 848 25.04 10.6 51.1 85 8.1 46.6
16:55 1018 30.06 848 25.04 10.9 51.6 81 7.8 46
17:00 1018 30.06 848 25.04 10.9 51.7 81 7.9 46.2
17:05 1018 30.06 848 25.04 11.4 52.5 79 7.9 46.2
17:10 1018 30.06 847 25.01 11.8 53.3 77 8 46.4
17:15 1018 30.06 847 25.01 12.4 54.3 74 8 46.4
17:20 1018 30.06 847 25.01 12.8 55 73 8.1 46.6
17:25 1018 30.06 847 25.01 13.5 56.3 71 8.4 47.2
17:30 1018 30.06 847 25.01 13.9 57 68 8.1 46.6
17:35 1018 30.06 847 25.01 14.4 57.9 66 8.1 46.6
17:40 1018 30.06 848 25.04 14.7 58.4 65 8.3 47
17:45 1018 30.06 848 25.04 14.4 57.8 65 7.9 46.2
17:50 1018 30.06 848 25.04 14.2 57.5 63 7.3 45.2
17:55 1018 30.06 848 25.04 14.3 57.7 63 7.5 45.5
18:00 1018 30.06 847 25.01 14.4 57.9 63 7.4 45.4
18:05 1018 30.06 847 25.01 14 57.3 65 7.5 45.5
18:10 1018 30.06 847 25.01 13.8 56.9 67 7.9 46.2
18:15 1018 30.06 847 25.01 13.7 56.7 65 7.4 45.4
18:20 1018 30.06 847 25.01 13.7 56.7 65 7.3 45.2
18:25 1018 30.06 848 25.04 13.7 56.6 64 7.1 44.8
18:30 1018 30.06 848 25.04 13.7 56.6 63 6.8 44.3
18:35 1018 30.06 848 25.04 13.8 56.8 62 6.6 44
18:40 1018 30.06 848 25.04 14 57.2 61 6.6 43.9
18:45 1019 30.09 848 25.04 14.1 57.5 62 7 44.6
18:50 1019 30.09 848 25.04 14.2 57.6 60 6.6 43.9
18:55 1019 30.09 848 25.04 14.1 57.4 60 6.5 43.6
19:00 1019 30.09 848 25.04 14.1 57.3 60 6.4 43.5
19:05 1019 30.09 848 25.04 14.3 57.7 56 5.6 42
19:10 1019 30.09 848 25.04 15.1 59.2 54 5.9 42.5
19:15 1019 30.09 848 25.04 15.6 60.1 52 5.9 42.6
19:20 1019 30.09 848 25.04 15.2 59.4 55 6.2 43.2
19:25 1019 30.09 848 25.04 14.7 58.5 54 5.5 41.9
19:30 1019 30.09 848 25.04 14.4 57.9 55 5.7 42.2
19:35 1019 30.09 848 25.04 14.3 57.7 56 5.7 42.3
19:40 1019 30.09 848 25.04 14.3 57.7 56 5.8 42.4
19:45 1019 30.09 848 25.04 14.1 57.4 57 5.9 42.7
19:50 1019 30.09 848 25.04 14.1 57.3 57 5.9 42.6
19:55 1019 30.09 848 25.04 14 57.1 60 6.3 43.3
20:00 1019 30.09 848 25.04 13.8 56.8 60 6.2 43.2
20:05 1019 30.09 848 25.04 13.6 56.5 61 6.2 43.2
20:10 1019 30.09 848 25.04 13.6 56.4 62 6.4 43.6
20:15 1019 30.09 848 25.04 13.6 56.4 61 6.2 43.2
20:20 1019 30.09 848 25.04 13.6 56.5 60 6.1 43
20:25 1019 30.09 848 25.04 13.7 56.6 60 6.1 42.9
20:30 1019 30.09 848 25.04 13.6 56.5 60 6 42.8
20:35 1019 30.09 849 25.07 13.5 56.3 60 6 42.8
20:40 1019 30.09 849 25.07 13.4 56.1 61 6.1 42.9
20:45 1019 30.09 849 25.07 13.2 55.7 61 5.9 42.6
20:50 1020 30.12 849 25.07 13 55.4 62 5.8 42.5
20:55 1020 30.12 849 25.07 12.8 55.1 61 5.6 42
21:00 1020 30.12 849 25.07 12.8 55 61 5.6 42.1
21:05 1020 30.12 849 25.07 12.7 54.9 62 5.6 42
21:10 1020 30.12 849 25.07 12.6 54.7 63 5.7 42.3
21:15 1020 30.12 849 25.07 12.5 54.5 63 5.7 42.3
21:20 1020 30.12 849 25.07 12.5 54.5 64 6 42.7
21:25 1020 30.12 849 25.07 12.5 54.5 65 6.1 43
21:30 1020 30.12 849 25.07 12.4 54.4 66 6.2 43.2
21:35 1020 30.12 849 25.07 12.4 54.3 67 6.4 43.5
21:40 1020 30.12 849 25.07 12.3 54.2 66 6.3 43.4
21:45 1020 30.12 850 25.1 12.3 54.2 66 6.3 43.4
21:50 1020 30.12 850 25.1 12.4 54.2 67 6.5 43.7
21:55 1021 30.15 850 25.1 12.3 54.1 68 6.5 43.7
22:00 1021 30.15 850 25.1 12.2 53.9 69 6.6 43.9
22:05 1021 30.15 850 25.1 12.1 53.7 69 6.5 43.7
22:10 1021 30.15 850 25.1 12.1 53.7 69 6.6 43.8
22:15 1021 30.15 850 25.1 12 53.6 69 6.5 43.7
22:20 1021 30.15 850 25.1 11.9 53.5 69 6.5 43.6
22:25 1021 30.15 850 25.1 11.9 53.5 69 6.4 43.6
22:30 1021 30.15 850 25.1 11.9 53.3 69 6.4 43.6
22:35 1021 30.15 850 25.1 11.8 53.2 70 6.5 43.7
22:40 1021 30.15 850 25.1 11.6 52.9 73 6.9 44.3
22:45 1021 30.15 850 25.1 11.3 52.3 73 6.6 43.9
22:50 1021 30.15 850 25.1 11 51.8 74 6.6 43.8
22:55 1021 30.15 850 25.1 11.1 51.9 75 6.9 44.4
23:00 1021 30.15 850 25.1 10.9 51.7 77 7.1 44.7
23:05 1021 30.15 850 25.1 10.8 51.5 74 6.4 43.6
23:10 1021 30.15 850 25.1 10.9 51.6 74 6.5 43.7
23:15 1021 30.15 850 25.1 11 51.7 73 6.3 43.4
23:20 1021 30.15 850 25.1 11.1 51.9 75 6.9 44.3
23:25 1021 30.15 850 25.1 11.2 52.1 71 6.2 43.2
23:30 1021 30.15 850 25.1 11.3 52.3 70 6 42.8
23:35 1021 30.15 850 25.1 11.3 52.4 68 5.7 42.3
23:40 1021 30.15 850 25.1 11.4 52.5 68 5.8 42.4
23:45 1021 30.15 850 25.1 11.3 52.4 69 5.8 42.5
23:50 1021 30.15 850 25.1 11.3 52.3 69 5.8 42.4
23:55 1021 30.15 850 25.1 11.3 52.4 69 5.8 42.5
24:00 1021 30.15 850 25.1 11.3 52.3 69 5.7 42.3